createdAt,value
2023-03-12T00:02:13.952Z,2.15
2023-03-12T00:04:40.976Z,2.26
2023-03-12T00:07:09.049Z,2.28
2023-03-12T00:09:37.763Z,2.29
2023-03-12T00:12:06.259Z,2.31
2023-03-12T00:14:33.698Z,2.40
2023-03-12T00:17:00.808Z,2.39
2023-03-12T00:19:27.868Z,2.40
2023-03-12T00:21:54.995Z,2.43
2023-03-12T00:24:22.125Z,2.40
2023-03-12T00:26:49.129Z,2.46
2023-03-12T00:29:16.168Z,2.51
2023-03-12T00:31:43.284Z,2.56
2023-03-12T00:34:10.906Z,2.58
2023-03-12T00:36:38.175Z,2.56
2023-03-12T00:39:05.166Z,2.57
2023-03-12T00:41:32.238Z,2.61
2023-03-12T00:43:59.318Z,2.66
2023-03-12T00:46:26.441Z,2.66
2023-03-12T00:48:53.451Z,2.68
2023-03-12T00:51:20.827Z,2.70
2023-03-12T00:53:48.122Z,2.71
2023-03-12T00:56:15.694Z,2.77
2023-03-12T00:58:43.608Z,2.79
2023-03-12T01:01:11.382Z,2.77
2023-03-12T01:03:39.162Z,2.80
2023-03-12T01:06:06.470Z,2.78
2023-03-12T01:08:34.021Z,2.81
2023-03-12T01:11:01.197Z,2.88
2023-03-12T01:13:28.919Z,2.92
2023-03-12T01:15:56.092Z,2.96
2023-03-12T01:18:23.528Z,2.97
2023-03-12T01:20:50.931Z,2.97
2023-03-12T01:23:17.964Z,3.03
2023-03-12T01:25:45.048Z,3.10
2023-03-12T01:28:12.056Z,3.13
2023-03-12T01:30:39.292Z,3.12
2023-03-12T01:33:06.262Z,3.05
2023-03-12T01:35:37.813Z,3.05
2023-03-12T01:38:06.939Z,3.20
2023-03-12T01:40:35.996Z,3.21
2023-03-12T01:43:26.280Z,3.27
2023-03-12T01:46:03.631Z,3.35
2023-03-12T01:48:40.169Z,3.34
2023-03-12T01:51:10.698Z,3.34
2023-03-12T01:53:38.662Z,3.41
2023-03-12T01:56:06.753Z,3.51
2023-03-12T01:58:38.166Z,3.53
2023-03-12T02:01:06.024Z,3.54
2023-03-12T02:03:35.167Z,3.57
2023-03-12T02:06:04.805Z,3.68
2023-03-12T02:08:31.758Z,3.72
2023-03-12T02:10:58.726Z,3.71
2023-03-12T02:13:26.043Z,3.69
2023-03-12T02:15:53.201Z,3.69
2023-03-12T02:18:21.645Z,3.73
2023-03-12T02:21:20.249Z,3.72
2023-03-12T02:23:59.389Z,3.67
2023-03-12T02:26:30.016Z,3.71
2023-03-12T02:29:00.670Z,3.74
2023-03-12T02:31:35.166Z,3.76
2023-03-12T02:34:02.342Z,3.80
2023-03-12T02:36:29.574Z,3.82
2023-03-12T02:38:57.114Z,3.85
2023-03-12T02:41:32.310Z,3.90
2023-03-12T02:44:08.157Z,3.87
2023-03-12T02:46:57.595Z,3.89
2023-03-12T02:49:28.532Z,3.92
2023-03-12T02:51:56.574Z,3.91
2023-03-12T02:54:24.429Z,3.91
2023-03-12T02:56:52.294Z,4.01
2023-03-12T02:59:21.984Z,4.01
2023-03-12T03:01:57.955Z,3.99
2023-03-12T03:04:25.852Z,3.96
2023-03-12T03:06:53.014Z,4.01
2023-03-12T03:09:22.488Z,4.00
2023-03-12T03:11:50.869Z,4.05
2023-03-12T03:14:18.752Z,3.98
2023-03-12T03:16:49.001Z,4.01
2023-03-12T03:19:16.294Z,4.01
2023-03-12T03:21:43.974Z,4.04
2023-03-12T03:24:11.474Z,4.12
2023-03-12T03:26:38.670Z,4.09
2023-03-12T03:29:05.742Z,4.19
2023-03-12T03:31:32.878Z,4.16
2023-03-12T03:34:00.005Z,4.14
2023-03-12T03:36:27.341Z,4.16
2023-03-12T03:39:01.342Z,4.16
2023-03-12T03:41:33.071Z,4.23
2023-03-12T03:44:00.465Z,4.23
2023-03-12T03:46:30.053Z,4.19
2023-03-12T03:49:04.110Z,4.26
2023-03-12T03:51:33.187Z,4.23
2023-03-12T03:54:05.333Z,4.34
2023-03-12T03:56:32.675Z,4.32
2023-03-12T03:59:02.125Z,4.37
2023-03-12T04:01:31.560Z,4.43
2023-03-12T04:04:00.480Z,4.47
2023-03-12T04:06:29.945Z,4.48
2023-03-12T04:08:58.464Z,4.46
2023-03-12T04:11:26.793Z,4.41
2023-03-12T04:13:55.520Z,4.34
2023-03-12T04:16:25.855Z,4.41
2023-03-12T04:18:54.737Z,4.47
2023-03-12T04:21:23.030Z,4.45
2023-03-12T04:23:51.359Z,4.47
2023-03-12T04:26:23.497Z,4.52
2023-03-12T04:28:50.611Z,4.55
2023-03-12T04:31:17.986Z,4.57
2023-03-12T04:33:50.194Z,4.65
2023-03-12T04:36:18.610Z,4.63
2023-03-12T04:38:48.465Z,4.69
2023-03-12T04:41:18.436Z,4.73
2023-03-12T04:43:53.341Z,4.68
2023-03-12T04:46:22.207Z,4.75
2023-03-12T04:48:49.406Z,4.68
2023-03-12T04:51:17.311Z,4.71
2023-03-12T04:53:44.539Z,4.71
2023-03-12T04:56:13.478Z,4.80
2023-03-12T04:58:41.825Z,4.88
2023-03-12T05:01:24.420Z,4.90
2023-03-12T05:03:52.389Z,4.95
2023-03-12T05:06:19.970Z,4.93
2023-03-12T05:08:48.083Z,4.99
2023-03-12T05:11:16.245Z,5.02
2023-03-12T05:13:43.722Z,5.04
2023-03-12T05:16:12.244Z,5.08
2023-03-12T05:18:39.357Z,5.13
2023-03-12T05:21:09.170Z,5.15
2023-03-12T05:23:36.911Z,5.19
2023-03-12T05:26:04.066Z,5.16
2023-03-12T05:28:31.053Z,5.22
2023-03-12T05:31:01.924Z,5.22
2023-03-12T05:33:30.647Z,5.21
2023-03-12T05:36:00.873Z,5.25
2023-03-12T05:38:29.356Z,5.22
2023-03-12T05:40:59.328Z,5.18
2023-03-12T05:43:29.772Z,5.16
2023-03-12T05:46:02.184Z,5.13
2023-03-12T05:48:30.307Z,5.15
2023-03-12T05:50:58.095Z,5.13
2023-03-12T05:53:25.437Z,5.18
2023-03-12T05:55:53.776Z,5.22
2023-03-12T05:58:20.999Z,5.27
2023-03-12T06:00:48.436Z,5.27
2023-03-12T06:03:15.935Z,5.23
2023-03-12T06:05:44.637Z,5.31
2023-03-12T06:08:11.855Z,5.33
2023-03-12T06:10:39.763Z,5.26
2023-03-12T06:13:08.836Z,5.20
2023-03-12T06:15:36.068Z,5.23
2023-03-12T06:18:05.470Z,5.27
2023-03-12T06:20:35.820Z,5.31
2023-03-12T06:23:03.021Z,5.35
2023-03-12T06:25:32.342Z,5.29
2023-03-12T06:27:59.491Z,5.29
2023-03-12T06:30:27.746Z,5.33
2023-03-12T06:32:55.283Z,5.27
2023-03-12T06:35:22.393Z,5.33
2023-03-12T06:37:49.481Z,5.32
2023-03-12T06:40:16.642Z,5.24
2023-03-12T06:42:43.584Z,5.32
2023-03-12T06:45:11.001Z,5.40
2023-03-12T06:47:38.016Z,5.42
2023-03-12T06:50:05.612Z,5.45
2023-03-12T06:52:33.246Z,5.44
2023-03-12T06:55:00.309Z,5.44
2023-03-12T06:57:27.335Z,5.38
2023-03-12T06:59:54.278Z,5.41
2023-03-12T07:02:21.345Z,5.37
2023-03-12T07:04:48.432Z,5.40
2023-03-12T07:07:17.139Z,5.51
2023-03-12T07:09:44.284Z,5.50
2023-03-12T07:12:11.399Z,5.52
2023-03-12T07:14:38.368Z,5.55
2023-03-12T07:17:05.588Z,5.53
2023-03-12T07:19:32.641Z,5.64
2023-03-12T07:21:59.791Z,5.68
2023-03-12T07:24:26.799Z,5.77
2023-03-12T07:26:53.758Z,5.75
2023-03-12T07:29:20.778Z,5.76
2023-03-12T07:31:47.865Z,5.77
2023-03-12T07:34:15.275Z,5.81
2023-03-12T07:36:42.478Z,5.70
2023-03-12T07:39:09.588Z,5.80
2023-03-12T07:41:37.585Z,5.81
2023-03-12T07:44:05.593Z,5.75
2023-03-12T07:46:32.975Z,5.78
2023-03-12T07:49:00.023Z,5.89
2023-03-12T07:51:27.481Z,5.87
2023-03-12T07:53:54.455Z,5.83
2023-03-12T07:56:21.635Z,5.85
2023-03-12T07:58:48.888Z,5.82
2023-03-12T08:01:16.129Z,5.93
2023-03-12T08:03:43.529Z,6.00
2023-03-12T08:06:11.014Z,6.03
2023-03-12T08:08:41.854Z,6.03
2023-03-12T08:11:09.623Z,6.07
2023-03-12T08:13:36.690Z,6.08
2023-03-12T08:16:03.870Z,6.13
2023-03-12T08:18:30.951Z,6.06
2023-03-12T08:20:57.965Z,6.10
2023-03-12T08:23:25.216Z,6.07
2023-03-12T08:25:52.691Z,6.00
2023-03-12T08:28:21.393Z,6.12
2023-03-12T08:30:54.275Z,6.13
2023-03-12T08:33:22.553Z,6.12
2023-03-12T08:35:49.992Z,6.11
2023-03-12T08:38:17.513Z,6.12
2023-03-12T08:40:45.023Z,6.16
2023-03-12T08:43:12.034Z,6.18
2023-03-12T08:45:39.210Z,6.20
2023-03-12T08:48:07.366Z,6.19
2023-03-12T08:50:34.529Z,6.30
2023-03-12T08:53:01.692Z,6.34
2023-03-12T08:55:28.741Z,6.38
2023-03-12T08:57:56.573Z,6.38
2023-03-12T09:00:25.229Z,6.36
2023-03-12T09:02:54.154Z,6.34
2023-03-12T09:05:21.372Z,6.44
2023-03-12T09:07:50.135Z,6.49
2023-03-12T09:10:17.790Z,6.48
2023-03-12T09:12:45.339Z,6.50
2023-03-12T09:15:12.429Z,6.50
2023-03-12T09:17:40.088Z,6.55
2023-03-12T09:20:08.999Z,6.67
2023-03-12T09:22:37.399Z,6.69
2023-03-12T09:25:05.779Z,6.70
2023-03-12T09:27:39.943Z,6.74
2023-03-12T09:30:08.616Z,6.64
2023-03-12T09:32:35.690Z,6.67
2023-03-12T09:35:03.343Z,6.63
2023-03-12T09:37:32.478Z,6.69
2023-03-12T09:40:00.197Z,6.71
2023-03-12T09:42:50.472Z,6.73
2023-03-12T09:45:22.825Z,6.77
2023-03-12T09:47:53.457Z,6.79
2023-03-12T09:50:26.320Z,6.78
2023-03-12T09:53:05.258Z,6.68
2023-03-12T09:55:41.128Z,6.68
2023-03-12T09:58:22.684Z,6.71
2023-03-12T10:00:49.710Z,6.67
2023-03-12T10:03:54.964Z,6.55
2023-03-12T10:06:25.061Z,6.55
2023-03-12T10:09:07.059Z,6.52
2023-03-12T10:11:57.761Z,6.47
2023-03-12T10:14:52.029Z,6.48
2023-03-12T10:17:21.954Z,6.54
2023-03-12T10:19:57.789Z,6.59
2023-03-12T10:23:12.194Z,6.62
2023-03-12T10:25:57.383Z,6.70
2023-03-12T10:28:49.319Z,6.63
2023-03-12T10:31:21.841Z,6.60
2023-03-12T10:33:56.170Z,6.71
2023-03-12T10:36:28.813Z,6.69
2023-03-12T10:38:56.135Z,6.69
2023-03-12T10:41:33.425Z,6.65
2023-03-12T10:44:07.852Z,6.64
2023-03-12T10:46:37.879Z,6.59
2023-03-12T10:49:24.127Z,6.53
2023-03-12T10:52:06.341Z,6.58
2023-03-12T10:54:33.306Z,6.64
2023-03-12T10:57:01.812Z,6.66
2023-03-12T10:59:37.491Z,6.68
2023-03-12T11:02:24.437Z,6.75
2023-03-12T11:04:52.705Z,6.77
2023-03-12T11:07:28.132Z,6.83
2023-03-12T11:10:07.381Z,6.86
2023-03-12T11:12:39.964Z,6.88
2023-03-12T11:15:19.018Z,6.94
2023-03-12T11:17:46.417Z,6.91
2023-03-12T11:20:22.452Z,6.97
2023-03-12T11:22:51.496Z,6.99
2023-03-12T11:25:28.648Z,7.04
2023-03-12T11:27:59.901Z,7.06
2023-03-12T11:30:36.862Z,7.08
2023-03-12T11:33:04.400Z,7.07
2023-03-12T11:36:03.924Z,7.03
2023-03-12T11:39:00.583Z,7.18
2023-03-12T11:41:51.292Z,7.25
2023-03-12T11:44:33.357Z,7.31
2023-03-12T11:47:16.828Z,7.14
2023-03-12T11:50:17.865Z,6.88
2023-03-12T11:53:12.181Z,6.55
2023-03-12T11:55:55.151Z,6.39
2023-03-12T11:58:59.583Z,6.21
2023-03-12T12:01:26.640Z,6.13
2023-03-12T12:04:13.471Z,5.95
2023-03-12T12:06:57.964Z,5.74
2023-03-12T12:09:32.410Z,5.63
2023-03-12T12:12:10.721Z,5.44
2023-03-12T12:15:06.781Z,5.32
2023-03-12T12:17:39.880Z,5.22
2023-03-12T12:20:29.093Z,5.14
2023-03-12T12:23:02.236Z,5.01
2023-03-12T12:25:52.825Z,4.88
2023-03-12T12:28:54.274Z,4.76
2023-03-12T12:31:36.513Z,4.76
2023-03-12T12:34:30.423Z,4.70
2023-03-12T12:37:13.117Z,4.62
2023-03-12T12:39:47.035Z,4.52
2023-03-12T12:42:22.076Z,4.46
2023-03-12T12:44:52.660Z,4.38
2023-03-12T12:47:30.292Z,4.36
2023-03-12T12:49:59.984Z,4.31
2023-03-12T12:52:27.659Z,4.24
2023-03-12T12:55:20.266Z,4.18
2023-03-12T12:57:58.143Z,3.96
2023-03-12T13:00:36.464Z,3.78
2023-03-12T13:03:04.469Z,3.61
2023-03-12T13:05:37.524Z,3.51
2023-03-12T13:08:08.809Z,3.35
2023-03-12T13:10:35.788Z,3.27
2023-03-12T13:13:21.170Z,3.05
2023-03-12T13:15:48.515Z,2.98
2023-03-12T13:18:22.220Z,2.81
2023-03-12T13:20:52.014Z,2.76
2023-03-12T13:23:24.788Z,2.70
2023-03-12T13:26:20.559Z,2.77
2023-03-12T13:28:56.724Z,2.78
2023-03-12T13:31:29.823Z,2.81
2023-03-12T13:33:59.110Z,2.81
2023-03-12T13:36:28.845Z,2.67
2023-03-12T13:39:06.609Z,2.50
2023-03-12T13:41:41.093Z,2.28
2023-03-12T13:44:23.279Z,2.15
2023-03-12T13:47:25.145Z,2.09
2023-03-12T13:50:00.177Z,1.95
2023-03-12T13:52:41.220Z,1.87
2023-03-12T13:55:14.602Z,1.87
2023-03-12T13:57:45.566Z,1.85
2023-03-12T14:00:18.677Z,1.95
2023-03-12T14:02:52.140Z,1.98
2023-03-12T14:05:20.560Z,2.01
2023-03-12T14:07:59.856Z,1.99
2023-03-12T14:10:36.907Z,2.00
2023-03-12T14:13:39.877Z,1.89
2023-03-12T14:16:46.048Z,1.79
2023-03-12T14:19:15.068Z,1.72
2023-03-12T14:21:44.426Z,1.58
2023-03-12T14:24:40.694Z,1.50
2023-03-12T14:27:15.497Z,1.35
2023-03-12T14:29:45.583Z,1.32
2023-03-12T14:32:25.637Z,1.33
2023-03-12T14:35:31.280Z,1.33
2023-03-12T14:38:01.351Z,1.34
2023-03-12T14:40:49.517Z,1.37
2023-03-12T14:43:25.363Z,1.37
2023-03-12T14:45:56.700Z,1.33
2023-03-12T14:48:29.058Z,1.31
2023-03-12T14:50:57.753Z,1.21
2023-03-12T14:53:29.673Z,1.15
2023-03-12T14:56:07.063Z,1.08
2023-03-12T14:58:36.859Z,0.94
2023-03-12T15:01:07.204Z,0.76
2023-03-12T15:03:43.636Z,0.56
2023-03-12T15:06:47.237Z,0.45
2023-03-12T15:09:26.055Z,0.29
2023-03-12T15:11:56.783Z,0.22
2023-03-12T15:14:26.244Z,0.20
2023-03-12T15:16:53.890Z,0.16
2023-03-12T15:19:26.649Z,-0.03
2023-03-12T15:21:54.122Z,-0.14
2023-03-12T15:24:21.633Z,-0.21
2023-03-12T15:26:48.770Z,-0.18
2023-03-12T15:29:26.941Z,-0.31
2023-03-12T15:32:00.853Z,-0.51
2023-03-12T15:34:33.279Z,-0.58
2023-03-12T15:37:21.256Z,-0.59
2023-03-12T15:39:51.646Z,-0.54
2023-03-12T15:42:24.215Z,-0.55
2023-03-12T15:45:00.106Z,-0.68
2023-03-12T15:47:29.308Z,-0.64
2023-03-12T15:49:57.704Z,-0.69
2023-03-12T15:52:36.096Z,-0.67
2023-03-12T15:55:14.658Z,-0.72
2023-03-12T15:57:45.698Z,-0.72
2023-03-12T16:00:12.700Z,-0.69
2023-03-12T16:02:47.216Z,-0.63
2023-03-12T16:05:14.432Z,-0.60
2023-03-12T16:07:41.436Z,-0.55
2023-03-12T16:10:14.061Z,-0.60
2023-03-12T16:12:44.554Z,-0.59
2023-03-12T16:15:25.840Z,-0.63
2023-03-12T16:17:52.842Z,-0.66
2023-03-12T16:20:20.171Z,-0.82
2023-03-12T16:22:47.293Z,-0.89
2023-03-12T16:25:14.377Z,-0.80
2023-03-12T16:27:49.722Z,-0.79
2023-03-12T16:30:22.975Z,-0.68
2023-03-12T16:32:50.274Z,-0.67
2023-03-12T16:35:19.249Z,-0.71
2023-03-12T16:37:47.237Z,-0.75
2023-03-12T16:40:24.035Z,-0.92
2023-03-12T16:43:02.705Z,-0.91
2023-03-12T16:45:30.994Z,-0.82
2023-03-12T16:48:03.578Z,-0.80
2023-03-12T16:50:31.084Z,-0.80
2023-03-12T16:52:58.990Z,-0.73
2023-03-12T16:55:29.008Z,-0.65
2023-03-12T16:57:59.337Z,-0.55
2023-03-12T17:00:30.500Z,-0.56
2023-03-12T17:02:59.115Z,-0.61
2023-03-12T17:05:28.487Z,-0.63
2023-03-12T17:07:58.357Z,-0.63
2023-03-12T17:10:26.062Z,-0.70
2023-03-12T17:12:54.021Z,-0.79
2023-03-12T17:15:23.828Z,-0.84
2023-03-12T17:17:51.006Z,-0.86
2023-03-12T17:20:21.073Z,-0.81
2023-03-12T17:22:48.333Z,-0.75
2023-03-12T17:25:29.155Z,-0.79
2023-03-12T17:27:57.439Z,-0.82
2023-03-12T17:30:26.171Z,-0.77
2023-03-12T17:32:54.442Z,-0.77
2023-03-12T17:35:21.536Z,-0.75
2023-03-12T17:37:48.663Z,-0.69
2023-03-12T17:40:16.152Z,-0.62
2023-03-12T17:42:43.296Z,-0.64
2023-03-12T17:45:11.017Z,-0.60
2023-03-12T17:47:38.963Z,-0.58
2023-03-12T17:50:07.874Z,-0.60
2023-03-12T17:52:35.120Z,-0.52
2023-03-12T17:55:03.467Z,-0.54
2023-03-12T17:57:30.903Z,-0.56
2023-03-12T17:59:58.064Z,-0.59
2023-03-12T18:02:25.166Z,-0.57
2023-03-12T18:04:52.249Z,-0.63
2023-03-12T18:07:19.331Z,-0.75
2023-03-12T18:09:46.311Z,-0.72
2023-03-12T18:12:13.357Z,-0.79
2023-03-12T18:14:40.324Z,-0.78
2023-03-12T18:17:07.402Z,-0.71
2023-03-12T18:19:35.627Z,-0.68
2023-03-12T18:22:02.872Z,-0.81
2023-03-12T18:24:30.204Z,-0.87
2023-03-12T18:26:59.332Z,-0.84
2023-03-12T18:29:26.822Z,-0.79
2023-03-12T18:31:53.990Z,-0.91
2023-03-12T18:34:21.161Z,-0.88
2023-03-12T18:36:48.257Z,-0.95
2023-03-12T18:39:15.340Z,-0.94
2023-03-12T18:41:42.447Z,-0.97
2023-03-12T18:44:09.485Z,-1.01
2023-03-12T18:46:36.616Z,-1.02
2023-03-12T18:49:08.307Z,-1.02
2023-03-12T18:51:35.928Z,-1.08
2023-03-12T18:54:03.090Z,-1.02
2023-03-12T18:56:30.192Z,-0.93
2023-03-12T18:58:57.207Z,-1.00
2023-03-12T19:01:24.513Z,-1.06
2023-03-12T19:03:52.322Z,-1.16
2023-03-12T19:06:19.394Z,-1.31
2023-03-12T19:08:46.428Z,-1.28
2023-03-12T19:11:15.838Z,-1.23
2023-03-12T19:13:43.534Z,-1.13
2023-03-12T19:16:12.900Z,-1.25
2023-03-12T19:18:40.150Z,-1.28
2023-03-12T19:21:08.523Z,-1.34
2023-03-12T19:23:36.009Z,-1.47
2023-03-12T19:26:03.770Z,-1.42
2023-03-12T19:28:31.342Z,-1.42
2023-03-12T19:31:07.030Z,-1.34
2023-03-12T19:33:34.424Z,-1.56
2023-03-12T19:36:02.007Z,-1.48
2023-03-12T19:38:29.416Z,-1.41
2023-03-12T19:40:58.217Z,-1.46
2023-03-12T19:43:26.028Z,-1.49
2023-03-12T19:45:54.811Z,-1.62
2023-03-12T19:48:22.832Z,-1.63
2023-03-12T19:50:51.608Z,-1.56
2023-03-12T19:53:19.825Z,-1.58
2023-03-12T19:55:48.511Z,-1.60
2023-03-12T19:58:16.648Z,-1.55
2023-03-12T20:00:43.841Z,-1.62
2023-03-12T20:03:10.990Z,-1.66
2023-03-12T20:05:38.492Z,-1.64
2023-03-12T20:08:05.688Z,-1.60
2023-03-12T20:10:32.926Z,-1.53
2023-03-12T20:13:00.008Z,-1.50
2023-03-12T20:15:27.014Z,-1.50
2023-03-12T20:17:54.928Z,-1.47
2023-03-12T20:20:21.891Z,-1.57
2023-03-12T20:22:49.073Z,-1.56
2023-03-12T20:25:16.128Z,-1.65
2023-03-12T20:27:43.805Z,-1.66
2023-03-12T20:30:11.403Z,-1.65
2023-03-12T20:32:38.483Z,-1.59
2023-03-12T20:35:06.117Z,-1.66
2023-03-12T20:37:33.082Z,-1.67
2023-03-12T20:40:00.138Z,-1.62
2023-03-12T20:42:27.302Z,-1.68
2023-03-12T20:44:54.334Z,-1.65
2023-03-12T20:47:22.504Z,-1.62
2023-03-12T20:49:49.512Z,-1.66
2023-03-12T20:52:16.598Z,-1.65
2023-03-12T20:54:43.698Z,-1.58
2023-03-12T20:57:10.764Z,-1.40
2023-03-12T20:59:37.780Z,-1.24
2023-03-12T21:02:04.835Z,-1.35
2023-03-12T21:04:31.930Z,-1.43
2023-03-12T21:06:59.013Z,-1.56
2023-03-12T21:09:26.069Z,-1.63
2023-03-12T21:11:53.179Z,-1.69
2023-03-12T21:14:20.229Z,-1.78
2023-03-12T21:16:47.361Z,-1.77
2023-03-12T21:19:14.558Z,-1.86
2023-03-12T21:21:41.571Z,-1.88
2023-03-12T21:24:08.603Z,-2.03
2023-03-12T21:26:35.768Z,-2.14
2023-03-12T21:29:03.238Z,-2.17
2023-03-12T21:31:30.633Z,-2.14
2023-03-12T21:33:58.197Z,-2.24
2023-03-12T21:36:26.252Z,-2.30
2023-03-12T21:38:53.302Z,-2.35
2023-03-12T21:41:20.940Z,-2.52
2023-03-12T21:43:48.319Z,-2.48
2023-03-12T21:46:24.754Z,-2.45
2023-03-12T21:48:52.065Z,-2.56
2023-03-12T21:51:19.710Z,-2.59
2023-03-12T21:53:46.750Z,-2.58
2023-03-12T21:56:13.742Z,-2.61
2023-03-12T21:58:41.163Z,-2.57
2023-03-12T22:01:17.352Z,-2.68
2023-03-12T22:03:45.921Z,-2.80
2023-03-12T22:06:14.752Z,-2.81
2023-03-12T22:08:43.016Z,-2.81
2023-03-12T22:11:10.909Z,-2.80
2023-03-12T22:13:38.236Z,-2.86
2023-03-12T22:16:08.359Z,-2.87
2023-03-12T22:18:41.141Z,-2.80
2023-03-12T22:21:09.170Z,-2.78
2023-03-12T22:23:36.956Z,-2.81
2023-03-12T22:26:06.259Z,-2.75
2023-03-12T22:28:34.115Z,-2.84
2023-03-12T22:31:03.848Z,-2.84
2023-03-12T22:33:31.212Z,-2.84
2023-03-12T22:35:58.676Z,-2.89
2023-03-12T22:38:26.113Z,-2.89
2023-03-12T22:40:55.610Z,-2.99
2023-03-12T22:43:24.983Z,-2.90
2023-03-12T22:45:55.165Z,-2.85
2023-03-12T22:48:22.153Z,-2.88
2023-03-12T22:50:55.627Z,-2.94
2023-03-12T22:53:23.288Z,-2.87
2023-03-12T22:55:58.805Z,-2.90
2023-03-12T22:58:26.628Z,-2.85
2023-03-12T23:01:23.545Z,-2.90
2023-03-12T23:03:51.007Z,-2.90
2023-03-12T23:06:32.760Z,-2.79
2023-03-12T23:08:59.962Z,-2.71
2023-03-12T23:11:28.225Z,-2.62
2023-03-12T23:13:55.786Z,-2.59
2023-03-12T23:16:25.593Z,-2.57
2023-03-12T23:18:52.924Z,-2.51
2023-03-12T23:21:22.301Z,-2.39
2023-03-12T23:23:50.816Z,-2.37
2023-03-12T23:26:20.943Z,-2.30
2023-03-12T23:28:48.511Z,-2.28
2023-03-12T23:31:16.475Z,-2.26
2023-03-12T23:33:43.963Z,-2.26
2023-03-12T23:36:16.785Z,-2.14
2023-03-12T23:38:44.889Z,-2.11
2023-03-12T23:41:15.093Z,-2.15
2023-03-12T23:43:42.187Z,-2.01
2023-03-12T23:46:10.708Z,-1.99
2023-03-12T23:48:39.049Z,-1.98
2023-03-12T23:51:08.944Z,-1.97
2023-03-12T23:53:37.326Z,-2.07
2023-03-12T23:56:07.055Z,-1.93
2023-03-12T23:58:34.201Z,-1.89
